Time;durP1;ratioP1;P1;durP2;ratioP2;P2;SDS_P1;SDS_P2;PMS_P1;PMS_P2;Temp;Humidity;BMP_temperature;BMP_pressure;BME280_temperature;BME280_humidity;BME280_pressure;Samples;Min_cycle;Max_cycle;Signal;HPM_P1;HPM_P2
2024/01/19 00:01:23;;;;;;;29.83;15.20;;;-0.40;99.90;;;;;;5111376;27;20190;-74
2024/01/19 00:03:48;;;;;;;26.97;13.03;;;-0.40;99.90;;;;;;5129954;27;20185;-74
2024/01/19 00:06:15;;;;;;;35.90;14.83;;;-0.40;99.90;;;;;;5129860;27;20648;-74
2024/01/19 00:08:40;;;;;;;30.50;14.68;;;-0.30;99.90;;;;;;5094226;27;20217;-74
2024/01/19 00:11:11;;;;;;;24.53;14.03;;;-0.30;99.90;;;;;;5129815;27;20177;-74
2024/01/19 00:13:37;;;;;;;28.10;15.43;;;-0.30;99.90;;;;;;5129839;27;20415;-75
2024/01/19 00:16:03;;;;;;;28.70;16.98;;;-0.30;99.90;;;;;;5111068;27;20253;-72
2024/01/19 00:18:29;;;;;;;30.80;15.10;;;-0.30;99.90;;;;;;5111257;27;20259;-74
2024/01/19 00:20:54;;;;;;;32.63;15.80;;;-0.30;99.90;;;;;;5129540;27;20189;-74
2024/01/19 00:23:20;;;;;;;29.07;15.67;;;-0.30;99.90;;;;;;5094428;27;20181;-74
2024/01/19 00:25:46;;;;;;;24.93;15.30;;;-0.30;99.90;;;;;;5129593;27;20192;-74
2024/01/19 00:28:11;;;;;;;31.50;15.40;;;-0.30;99.90;;;;;;5111250;27;20223;-74
2024/01/19 00:30:37;;;;;;;28.30;16.27;;;-0.30;99.90;;;;;;5111345;27;20181;-74
2024/01/19 00:33:03;;;;;;;22.77;13.90;;;-0.30;99.90;;;;;;5094824;27;20195;-74
2024/01/19 00:35:29;;;;;;;28.75;15.02;;;-0.30;99.90;;;;;;5111922;28;20184;-73
2024/01/19 00:37:54;;;;;;;30.63;14.60;;;-0.30;99.90;;;;;;5094555;28;20220;-73
2024/01/19 00:40:20;;;;;;;29.67;16.07;;;-0.30;99.90;;;;;;5130021;28;20185;-73
2024/01/19 00:42:46;;;;;;;31.52;15.38;;;-0.30;99.90;;;;;;5111434;28;20237;-73
2024/01/19 00:45:12;;;;;;;26.40;14.90;;;-0.30;99.90;;;;;;5094211;28;20213;-73
2024/01/19 00:47:38;;;;;;;38.57;16.83;;;-0.40;99.90;;;;;;5129566;28;20200;-74
2024/01/19 00:50:05;;;;;;;23.90;14.17;;;-0.30;99.90;;;;;;5129467;28;20173;-73
2024/01/19 00:52:31;;;;;;;33.80;15.43;;;-0.30;99.90;;;;;;5129780;28;20272;-73
2024/01/19 00:54:57;;;;;;;28.70;16.40;;;-0.30;99.90;;;;;;5110923;28;20268;-73
2024/01/19 00:57:22;;;;;;;31.23;16.07;;;-0.40;99.90;;;;;;5129464;28;20644;-74
2024/01/19 00:59:48;;;;;;;23.47;14.23;;;-0.40;99.90;;;;;;5129273;28;20439;-74
2024/01/19 01:02:14;;;;;;;35.57;16.00;;;-0.40;99.90;;;;;;5129492;28;20184;-74
2024/01/19 01:04:39;;;;;;;29.67;16.17;;;-0.30;99.90;;;;;;5110795;28;20268;-74
2024/01/19 01:07:05;;;;;;;33.43;17.13;;;-0.30;99.90;;;;;;5129105;28;20181;-74
2024/01/19 01:09:31;;;;;;;33.80;16.73;;;-0.30;99.90;;;;;;5131651;27;20224;-74
2024/01/19 01:11:57;;;;;;;36.30;16.93;;;-0.30;99.90;;;;;;5097609;27;20566;-74
2024/01/19 01:14:22;;;;;;;31.63;15.85;;;-0.30;99.90;;;;;;5133038;27;20185;-74
2024/01/19 01:16:48;;;;;;;30.67;15.63;;;-0.30;99.90;;;;;;5132908;27;20188;-74
2024/01/19 01:19:14;;;;;;;44.07;17.00;;;-0.30;99.90;;;;;;5132932;27;20214;-73
2024/01/19 01:21:39;;;;;;;30.73;16.20;;;-0.30;99.90;;;;;;5132956;27;20655;-73
2024/01/19 01:24:05;;;;;;;26.97;14.07;;;-0.30;99.90;;;;;;5132920;27;20236;-74
2024/01/19 01:26:30;;;;;;;26.80;15.07;;;-0.30;99.90;;;;;;5114451;27;20187;-74
2024/01/19 01:28:56;;;;;;;31.40;15.50;;;-0.30;99.90;;;;;;5132673;27;20601;-73
2024/01/19 01:31:22;;;;;;;31.03;15.10;;;-0.30;99.90;;;;;;5114027;27;20217;-74
2024/01/19 01:33:48;;;;;;;29.67;14.65;;;-0.30;99.90;;;;;;5132621;27;20177;-75
2024/01/19 01:36:14;;;;;;;30.00;15.70;;;-0.30;99.90;;;;;;5113963;27;20572;-74
2024/01/19 01:38:40;;;;;;;29.77;15.43;;;-0.20;99.90;;;;;;5132632;27;20278;-74
2024/01/19 01:41:05;;;;;;;32.60;15.00;;;-0.20;99.90;;;;;;5132741;27;20411;-75
2024/01/19 01:43:31;;;;;;;29.47;14.20;;;-0.20;99.90;;;;;;5132536;27;20418;-74
2024/01/19 01:45:57;;;;;;;26.70;14.33;;;-0.30;99.90;;;;;;5132469;27;20182;-74
2024/01/19 01:48:24;;;;;;;36.72;15.93;;;-0.30;99.90;;;;;;5113630;27;20719;-74
2024/01/19 01:50:50;;;;;;;30.52;16.52;;;-0.30;99.90;;;;;;5132296;27;20193;-74
2024/01/19 01:53:19;;;;;;;35.47;15.47;;;-0.30;99.90;;;;;;5132433;27;20182;-74
2024/01/19 01:55:48;;;;;;;29.83;15.15;;;-0.30;99.90;;;;;;5132441;27;20181;-74
2024/01/19 01:58:16;;;;;;;35.28;16.05;;;-0.30;99.90;;;;;;5113773;27;20217;-75
2024/01/19 02:00:45;;;;;;;30.90;15.70;;;-0.40;99.90;;;;;;5132140;27;20188;-76
2024/01/19 02:03:11;;;;;;;28.75;15.85;;;-0.30;99.90;;;;;;5131978;27;20844;-73
2024/01/19 02:05:37;;;;;;;30.30;15.35;;;-0.30;99.90;;;;;;5132117;27;20211;-75
2024/01/19 02:08:03;;;;;;;29.85;15.00;;;-0.30;99.90;;;;;;5113522;27;20288;-75
2024/01/19 02:10:29;;;;;;;33.10;15.13;;;-0.30;99.90;;;;;;5113811;27;21062;-74
2024/01/19 02:12:55;;;;;;;33.27;14.97;;;-0.30;99.90;;;;;;5131995;27;20177;-74
2024/01/19 02:15:29;;;;;;;29.30;15.35;;;-0.30;99.90;;;;;;5131977;27;20669;-75
2024/01/19 02:17:54;;;;;;;27.83;15.63;;;-0.30;99.90;;;;;;5131763;27;20289;-75
2024/01/19 02:20:21;;;;;;;38.33;16.80;;;-0.30;99.90;;;;;;5112830;27;20277;-74
2024/01/19 02:22:47;;;;;;;33.28;16.08;;;-0.30;99.90;;;;;;5113387;27;20185;-74
2024/01/19 02:25:13;;;;;;;30.38;15.70;;;-0.30;99.90;;;;;;5113300;27;20731;-76
2024/01/19 02:27:39;;;;;;;31.10;14.30;;;-0.30;99.90;;;;;;5132128;27;20304;-75
2024/01/19 02:30:11;;;;;;;31.00;14.27;;;-0.30;99.90;;;;;;5132026;27;20501;-74
2024/01/19 02:32:37;;;;;;;26.58;13.98;;;-0.30;99.90;;;;;;5132374;27;20626;-75
2024/01/19 02:35:04;;;;;;;24.37;13.27;;;-0.30;99.90;;;;;;5132266;27;20219;-74
2024/01/19 02:37:30;;;;;;;23.75;13.13;;;-0.30;99.90;;;;;;5132090;27;20287;-75
2024/01/19 02:39:56;;;;;;;23.60;13.53;;;-0.30;99.90;;;;;;5132142;27;20267;-75
2024/01/19 02:42:21;;;;;;;24.20;12.23;;;-0.30;99.90;;;;;;5096888;27;20185;-73
2024/01/19 02:44:47;;;;;;;28.43;15.23;;;-0.40;99.90;;;;;;5113549;27;20452;-75
2024/01/19 02:47:12;;;;;;;24.77;13.63;;;-0.40;99.90;;;;;;5113373;27;20188;-75
2024/01/19 02:49:38;;;;;;;24.17;14.00;;;-0.40;99.90;;;;;;5131713;27;20277;-75
2024/01/19 02:52:04;;;;;;;29.23;15.20;;;-0.40;99.90;;;;;;5113137;27;20179;-75
2024/01/19 02:54:29;;;;;;;23.70;13.67;;;-0.40;99.90;;;;;;5112903;27;20181;-75
2024/01/19 02:56:55;;;;;;;32.30;14.93;;;-0.40;99.90;;;;;;5113151;27;20188;-75
2024/01/19 02:59:21;;;;;;;35.87;14.63;;;-0.30;99.90;;;;;;5112994;27;20209;-75
2024/01/19 03:01:46;;;;;;;27.30;14.90;;;-0.40;99.90;;;;;;5113531;27;20192;-74
2024/01/19 03:04:12;;;;;;;26.33;13.80;;;-0.40;99.90;;;;;;5131044;27;20182;-74
2024/01/19 03:06:38;;;;;;;26.77;15.27;;;-0.40;99.90;;;;;;5131074;27;20181;-74
2024/01/19 03:09:03;;;;;;;28.73;13.90;;;-0.30;99.90;;;;;;5095378;27;20216;-74
2024/01/19 03:11:29;;;;;;;28.53;14.50;;;-0.40;99.90;;;;;;5131127;27;20177;-74
2024/01/19 03:13:55;;;;;;;27.10;13.63;;;-0.40;99.90;;;;;;5130864;27;20716;-74
2024/01/19 03:16:20;;;;;;;28.93;14.20;;;-0.40;99.90;;;;;;5112456;27;20260;-74
2024/01/19 03:18:46;;;;;;;27.33;14.60;;;-0.40;99.90;;;;;;5112379;27;20201;-75
2024/01/19 03:21:12;;;;;;;24.53;15.17;;;-0.40;99.90;;;;;;5130802;27;20712;-74
2024/01/19 03:23:38;;;;;;;27.25;13.60;;;-0.50;99.90;;;;;;5112388;27;20192;-75
2024/01/19 03:26:05;;;;;;;25.00;13.95;;;-0.50;99.90;;;;;;5130904;27;20177;-73
2024/01/19 03:28:30;;;;;;;25.23;15.13;;;-0.50;99.90;;;;;;5111862;27;20228;-75
2024/01/19 03:30:56;;;;;;;29.10;15.27;;;-0.50;99.90;;;;;;5130672;27;20173;-75
2024/01/19 03:33:22;;;;;;;26.37;13.57;;;-0.50;99.90;;;;;;5129479;27;20758;-75
2024/01/19 03:35:47;;;;;;;28.87;14.90;;;-0.50;99.90;;;;;;5130511;27;20297;-74
2024/01/19 03:38:13;;;;;;;28.93;14.77;;;-0.40;99.90;;;;;;5111596;27;20239;-75
2024/01/19 03:40:38;;;;;;;27.90;14.27;;;-0.50;99.90;;;;;;5130274;27;20182;-75
2024/01/19 03:43:04;;;;;;;29.47;14.20;;;-0.50;99.90;;;;;;5130290;27;20199;-75
2024/01/19 03:45:30;;;;;;;26.93;15.07;;;-0.50;99.90;;;;;;5130276;27;20667;-75
2024/01/19 03:47:55;;;;;;;28.80;15.97;;;-0.50;99.90;;;;;;5111234;27;20220;-75
2024/01/19 03:50:22;;;;;;;26.70;14.87;;;-0.50;99.90;;;;;;5111489;28;20302;-74
2024/01/19 03:52:48;;;;;;;28.27;16.20;;;-0.50;99.90;;;;;;5111641;27;20328;-75
2024/01/19 03:55:15;;;;;;;25.63;15.53;;;-0.50;99.90;;;;;;5130091;27;20185;-76
2024/01/19 03:57:41;;;;;;;26.88;14.20;;;-0.60;99.90;;;;;;5111439;27;20596;-75
2024/01/19 04:00:07;;;;;;;33.43;15.03;;;-0.50;99.90;;;;;;5111612;27;20181;-74
2024/01/19 04:02:33;;;;;;;27.55;14.13;;;-0.50;99.90;;;;;;5111404;27;20181;-74
2024/01/19 04:04:58;;;;;;;27.47;14.40;;;-0.50;99.90;;;;;;5129873;27;20196;-75
2024/01/19 04:07:24;;;;;;;25.47;13.53;;;-0.50;99.90;;;;;;5111318;27;20928;-74
2024/01/19 04:09:49;;;;;;;26.17;12.60;;;-0.60;99.90;;;;;;5129858;27;20588;-74
2024/01/19 04:12:16;;;;;;;25.87;14.83;;;-0.60;99.90;;;;;;5130098;27;20177;-74
2024/01/19 04:14:44;;;;;;;29.17;15.27;;;-0.60;99.90;;;;;;5130002;27;20609;-74
2024/01/19 04:17:10;;;;;;;23.92;13.05;;;-0.60;99.90;;;;;;5129776;27;20169;-73
2024/01/19 04:19:37;;;;;;;27.88;16.50;;;-0.60;99.90;;;;;;5130263;27;20196;-73
2024/01/19 04:22:03;;;;;;;30.88;15.15;;;-0.60;99.90;;;;;;5111467;27;20192;-74
2024/01/19 04:24:29;;;;;;;26.77;15.95;;;-0.60;99.90;;;;;;5129940;27;20838;-74
2024/01/19 04:26:54;;;;;;;31.50;16.93;;;-0.60;99.90;;;;;;5111325;27;20185;-74
2024/01/19 04:29:20;;;;;;;29.17;15.60;;;-0.50;99.90;;;;;;5129241;27;20717;-75
2024/01/19 04:31:45;;;;;;;30.77;15.70;;;-0.50;99.90;;;;;;5110655;27;20192;-74
2024/01/19 04:34:11;;;;;;;31.87;17.30;;;-0.60;99.90;;;;;;5111408;27;20213;-76
2024/01/19 04:36:37;;;;;;;37.73;18.30;;;-0.50;99.90;;;;;;5110753;28;20197;-75
2024/01/19 04:39:03;;;;;;;39.73;19.37;;;-0.50;99.90;;;;;;5129344;28;20571;-75
2024/01/19 04:41:29;;;;;;;37.92;21.77;;;-0.50;99.90;;;;;;5129424;28;20418;-75
2024/01/19 04:43:54;;;;;;;39.27;20.80;;;-0.50;99.90;;;;;;5131131;27;20181;-73
2024/01/19 04:46:20;;;;;;;32.40;17.83;;;-0.50;99.90;;;;;;5133806;27;20582;-74
2024/01/19 04:48:45;;;;;;;35.70;18.47;;;-0.50;99.90;;;;;;5114997;27;20227;-74
2024/01/19 04:51:11;;;;;;;34.53;18.30;;;-0.50;99.90;;;;;;5133504;27;20180;-74
2024/01/19 04:53:37;;;;;;;37.60;18.60;;;-0.50;99.90;;;;;;5115427;27;20180;-74
2024/01/19 04:56:09;;;;;;;31.90;16.07;;;-0.50;99.90;;;;;;5114978;27;20681;-74
2024/01/19 04:58:35;;;;;;;34.83;16.05;;;-0.50;99.90;;;;;;5114766;27;20307;-74
2024/01/19 05:01:01;;;;;;;28.63;15.40;;;-0.50;99.90;;;;;;5133388;27;20181;-74
2024/01/19 05:03:27;;;;;;;30.80;16.60;;;-0.40;99.90;;;;;;5114690;27;20273;-75
2024/01/19 05:05:53;;;;;;;36.53;17.17;;;-0.40;99.90;;;;;;5133240;27;20921;-74
2024/01/19 05:08:18;;;;;;;23.20;14.03;;;-0.40;99.90;;;;;;5114179;27;20600;-75
2024/01/19 05:10:44;;;;;;;25.90;15.40;;;-0.40;99.90;;;;;;5133125;27;20248;-75
2024/01/19 05:13:10;;;;;;;27.50;14.87;;;-0.40;99.90;;;;;;5114369;27;20180;-75
2024/01/19 05:15:36;;;;;;;29.50;15.10;;;-0.50;99.90;;;;;;5133142;27;20206;-75
2024/01/19 05:18:02;;;;;;;29.55;15.07;;;-0.40;99.90;;;;;;5132740;27;20192;-75
2024/01/19 05:20:28;;;;;;;30.97;15.93;;;-0.40;99.90;;;;;;5132001;27;20185;-75
2024/01/19 05:22:54;;;;;;;36.25;15.43;;;-0.40;99.90;;;;;;5131557;27;20317;-75
2024/01/19 05:25:20;;;;;;;26.70;14.77;;;-0.40;99.90;;;;;;5112874;27;20814;-75
2024/01/19 05:27:47;;;;;;;31.08;16.58;;;-0.30;99.90;;;;;;5112926;27;20474;-75
2024/01/19 05:30:13;;;;;;;32.60;15.98;;;-0.40;99.90;;;;;;5113155;27;20248;-75
2024/01/19 05:32:40;;;;;;;33.05;17.35;;;-0.40;99.90;;;;;;5113535;27;20174;-75
2024/01/19 05:35:05;;;;;;;31.13;16.58;;;-0.40;99.90;;;;;;5132077;27;20566;-75
2024/01/19 05:37:31;;;;;;;28.50;15.50;;;-0.50;99.90;;;;;;5131421;27;20199;-74
2024/01/19 05:39:57;;;;;;;36.47;16.97;;;-0.50;99.90;;;;;;5112869;27;20422;-75
2024/01/19 05:42:22;;;;;;;24.07;14.30;;;-0.50;99.90;;;;;;5113173;27;20181;-75
2024/01/19 05:44:48;;;;;;;31.93;15.50;;;-0.50;99.90;;;;;;5131860;27;20184;-75
2024/01/19 05:47:14;;;;;;;28.33;15.17;;;-0.50;99.90;;;;;;5131785;27;20701;-75
2024/01/19 05:49:42;;;;;;;28.03;15.47;;;-0.50;99.90;;;;;;5131627;27;20205;-75
2024/01/19 05:52:08;;;;;;;29.65;14.80;;;-0.50;99.90;;;;;;5131080;27;20407;-75
2024/01/19 05:54:34;;;;;;;29.03;15.40;;;-0.50;99.90;;;;;;5130701;27;20252;-75
2024/01/19 05:57:00;;;;;;;26.23;14.40;;;-0.50;99.90;;;;;;5111987;27;20302;-75
2024/01/19 05:59:25;;;;;;;29.00;16.40;;;-0.50;99.90;;;;;;5131075;27;20612;-75
2024/01/19 06:01:51;;;;;;;31.47;17.43;;;-0.50;99.90;;;;;;5130911;27;20204;-75
2024/01/19 06:04:18;;;;;;;31.37;18.57;;;-0.50;99.90;;;;;;5131252;27;20178;-75
2024/01/19 06:06:43;;;;;;;24.55;15.77;;;-0.50;99.90;;;;;;5095259;27;20940;-74
2024/01/19 06:09:10;;;;;;;27.90;16.30;;;-0.40;99.90;;;;;;5130725;27;20223;-75
2024/01/19 06:11:35;;;;;;;29.10;16.95;;;-0.50;99.90;;;;;;5130628;27;20180;-74
2024/01/19 06:14:02;;;;;;;33.30;18.70;;;-0.50;99.90;;;;;;5112256;27;20189;-75
2024/01/19 06:16:28;;;;;;;28.05;15.93;;;-0.50;99.90;;;;;;5130953;27;20173;-74
2024/01/19 06:18:54;;;;;;;25.75;14.63;;;-0.50;99.90;;;;;;5112119;27;20270;-75
2024/01/19 06:21:20;;;;;;;39.50;16.60;;;-0.50;99.90;;;;;;5130775;27;20653;-75
2024/01/19 06:23:45;;;;;;;37.43;15.07;;;-0.50;99.90;;;;;;5130763;27;20189;-74
2024/01/19 06:26:12;;;;;;;28.73;16.10;;;-0.50;99.90;;;;;;5112303;27;21009;-75
2024/01/19 06:28:41;;;;;;;24.23;14.45;;;-0.50;99.90;;;;;;5112272;27;20240;-75
2024/01/19 06:31:10;;;;;;;28.50;15.38;;;-0.50;99.90;;;;;;5113162;27;20185;-75
2024/01/19 06:33:36;;;;;;;26.20;15.95;;;-0.50;99.90;;;;;;5113218;27;20554;-74
2024/01/19 06:36:07;;;;;;;39.90;15.47;;;-0.50;99.90;;;;;;5112301;27;20188;-74
2024/01/19 06:38:32;;;;;;;27.35;16.08;;;-0.50;99.90;;;;;;5130880;27;20484;-74
2024/01/19 06:40:58;;;;;;;29.83;16.07;;;-0.50;99.90;;;;;;5112325;27;20189;-74
2024/01/19 06:43:23;;;;;;;30.43;15.47;;;-0.50;99.90;;;;;;5130777;27;20182;-75
2024/01/19 06:45:49;;;;;;;26.80;15.90;;;-0.50;99.90;;;;;;5095187;27;20181;-74
2024/01/19 06:48:15;;;;;;;32.50;16.23;;;-0.50;99.90;;;;;;5130930;27;20712;-74
2024/01/19 06:50:40;;;;;;;26.00;16.83;;;-0.50;99.90;;;;;;5131071;27;20192;-74
2024/01/19 06:53:06;;;;;;;28.73;15.37;;;-0.50;99.90;;;;;;5095176;27;20229;-74
2024/01/19 06:55:32;;;;;;;27.10;15.53;;;-0.40;99.90;;;;;;5130936;27;20181;-74
2024/01/19 06:57:57;;;;;;;37.33;16.23;;;-0.40;99.90;;;;;;5130814;27;20461;-75
2024/01/19 07:00:23;;;;;;;25.10;15.10;;;-0.40;99.90;;;;;;5112157;27;20184;-74
2024/01/19 07:02:49;;;;;;;24.42;15.27;;;-0.40;99.90;;;;;;5130324;27;20262;-74
2024/01/19 07:05:16;;;;;;;26.60;15.10;;;-0.40;99.90;;;;;;5130419;27;20284;-74
2024/01/19 07:07:41;;;;;;;30.75;16.50;;;-0.40;99.90;;;;;;5111295;27;20232;-75
2024/01/19 07:10:07;;;;;;;30.77;17.03;;;-0.40;99.90;;;;;;5112289;27;20559;-74
2024/01/19 07:12:33;;;;;;;38.00;19.67;;;-0.50;99.90;;;;;;5129840;27;20170;-74
2024/01/19 07:14:58;;;;;;;33.90;18.53;;;-0.50;99.90;;;;;;5094214;27;20419;-75
2024/01/19 07:17:24;;;;;;;40.43;20.70;;;-0.50;99.90;;;;;;5129350;27;20169;-74
2024/01/19 07:19:50;;;;;;;38.50;19.37;;;-0.50;99.90;;;;;;5090442;28;20208;-74
2024/01/19 07:22:15;;;;;;;35.13;19.03;;;-0.50;99.90;;;;;;5129087;27;20549;-75
2024/01/19 07:24:41;;;;;;;33.23;18.80;;;-0.50;99.90;;;;;;5129258;27;20188;-75
2024/01/19 07:27:06;;;;;;;29.00;16.37;;;-0.40;99.90;;;;;;5111002;27;20249;-74
2024/01/19 07:29:32;;;;;;;31.80;19.77;;;-0.40;99.90;;;;;;5110652;27;20224;-74
2024/01/19 07:31:58;;;;;;;30.73;19.47;;;-0.40;99.90;;;;;;5129050;27;20215;-74
2024/01/19 07:34:24;;;;;;;35.77;19.30;;;-0.40;99.90;;;;;;5090481;28;20201;-74
2024/01/19 07:36:49;;;;;;;35.73;17.13;;;-0.30;99.90;;;;;;5124625;27;20245;-74
2024/01/19 07:39:15;;;;;;;35.63;17.50;;;-0.30;99.90;;;;;;5093412;27;20537;-75
2024/01/19 07:41:40;;;;;;;26.40;16.83;;;-0.30;99.90;;;;;;5110245;27;20651;-74
2024/01/19 07:44:06;;;;;;;25.23;16.40;;;-0.30;99.90;;;;;;5128864;27;20184;-75
2024/01/19 07:46:32;;;;;;;32.37;15.53;;;-0.20;99.90;;;;;;5128712;27;20556;-74
2024/01/19 07:48:58;;;;;;;31.57;16.30;;;-0.30;99.90;;;;;;5128591;27;20519;-74
2024/01/19 07:51:24;;;;;;;34.87;16.90;;;-0.20;99.90;;;;;;5128644;27;20186;-74
2024/01/19 07:53:50;;;;;;;28.88;17.27;;;-0.20;99.90;;;;;;5128713;27;20250;-74
2024/01/19 07:56:16;;;;;;;32.30;17.50;;;-0.20;99.90;;;;;;5109893;27;20661;-74
2024/01/19 07:58:44;;;;;;;34.93;18.37;;;-0.20;99.90;;;;;;5089800;28;20438;-74
2024/01/19 08:01:10;;;;;;;31.92;18.20;;;-0.10;99.90;;;;;;5127337;27;20190;-75
2024/01/19 08:03:38;;;;;;;29.87;15.50;;;-0.10;99.90;;;;;;5128526;27;20181;-75
2024/01/19 08:06:04;;;;;;;42.35;16.00;;;-0.10;99.90;;;;;;5109834;27;20433;-75
2024/01/19 08:08:30;;;;;;;23.42;13.32;;;-0.10;99.90;;;;;;5109962;27;20216;-74
2024/01/19 08:10:55;;;;;;;31.93;15.97;;;-0.10;99.90;;;;;;5128348;27;20181;-74
2024/01/19 08:13:21;;;;;;;22.40;13.23;;;0.00;99.90;;;;;;5110152;27;20272;-74
2024/01/19 08:15:47;;;;;;;19.57;13.13;;;0.00;99.90;;;;;;5110251;27;20185;-74
2024/01/19 08:18:13;;;;;;;22.10;14.23;;;0.00;99.90;;;;;;5109670;28;20300;-74
2024/01/19 08:20:38;;;;;;;20.73;13.15;;;0.10;99.90;;;;;;5109829;27;20664;-74
2024/01/19 08:23:04;;;;;;;20.93;12.50;;;0.10;99.90;;;;;;5090792;27;20190;-74
2024/01/19 08:25:30;;;;;;;20.60;13.37;;;0.10;99.90;;;;;;5109547;27;20198;-75
2024/01/19 08:27:55;;;;;;;27.83;13.80;;;0.20;99.90;;;;;;5109621;28;20573;-75
2024/01/19 08:30:21;;;;;;;22.23;11.90;;;0.20;99.90;;;;;;5109417;27;20276;-75
2024/01/19 08:32:47;;;;;;;22.70;13.97;;;0.20;99.90;;;;;;5128449;27;20178;-73
2024/01/19 08:35:12;;;;;;;27.97;13.77;;;0.20;99.90;;;;;;5109391;28;20189;-75
2024/01/19 08:37:39;;;;;;;19.80;12.73;;;0.20;99.90;;;;;;5109023;28;20205;-74
2024/01/19 08:40:09;;;;;;;27.63;14.82;;;0.30;99.90;;;;;;5109094;28;20200;-74
2024/01/19 08:42:36;;;;;;;22.05;13.73;;;0.30;99.90;;;;;;5109175;28;20193;-74
2024/01/19 08:45:02;;;;;;;22.65;13.30;;;0.30;99.90;;;;;;5127813;28;20215;-74
2024/01/19 08:47:28;;;;;;;24.73;13.30;;;0.30;99.90;;;;;;5108898;28;20634;-74
2024/01/19 08:49:54;;;;;;;21.70;13.70;;;0.40;99.90;;;;;;5109135;28;20178;-74
2024/01/19 08:52:19;;;;;;;26.23;14.67;;;0.40;99.90;;;;;;5109121;28;20422;-74
2024/01/19 08:54:45;;;;;;;26.30;14.37;;;0.40;99.90;;;;;;5127855;28;20451;-74
2024/01/19 08:57:10;;;;;;;25.83;15.00;;;0.50;99.90;;;;;;5109128;28;20187;-74
2024/01/19 08:59:36;;;;;;;24.77;15.37;;;0.50;99.90;;;;;;5127544;28;20262;-75
2024/01/19 09:02:02;;;;;;;22.20;14.60;;;0.50;99.90;;;;;;5109341;28;20983;-74
2024/01/19 09:04:27;;;;;;;25.30;14.97;;;0.50;99.90;;;;;;5127698;28;20198;-74
2024/01/19 09:06:55;;;;;;;30.13;14.97;;;0.50;99.90;;;;;;5092019;28;20196;-75
2024/01/19 09:09:21;;;;;;;27.52;14.45;;;0.60;99.90;;;;;;5127422;28;20212;-74
2024/01/19 09:11:47;;;;;;;30.88;14.93;;;0.80;99.90;;;;;;5127688;28;20178;-75
2024/01/19 09:14:13;;;;;;;20.70;13.00;;;0.90;99.90;;;;;;5091403;28;20181;-74
2024/01/19 09:16:43;;;;;;;28.57;13.97;;;0.90;99.90;;;;;;5127761;28;20183;-74
2024/01/19 09:19:08;;;;;;;20.75;12.30;;;0.90;99.90;;;;;;5108808;28;20201;-75
2024/01/19 09:21:34;;;;;;;18.60;12.43;;;0.90;99.90;;;;;;5127518;28;20184;-75
2024/01/19 09:23:59;;;;;;;21.67;12.97;;;0.90;99.90;;;;;;5127552;28;20610;-75
2024/01/19 09:26:25;;;;;;;20.50;13.40;;;0.90;99.90;;;;;;5108967;28;20187;-75
2024/01/19 09:28:51;;;;;;;21.20;12.47;;;1.10;99.90;;;;;;5108708;28;20303;-75
2024/01/19 09:31:16;;;;;;;29.17;12.87;;;1.10;99.90;;;;;;5112662;27;20184;-74
2024/01/19 09:33:42;;;;;;;30.80;18.70;;;1.20;99.90;;;;;;5112533;27;20176;-74
2024/01/19 09:36:08;;;;;;;32.67;16.63;;;1.20;99.90;;;;;;5131184;27;20292;-74
2024/01/19 09:38:35;;;;;;;27.95;15.88;;;1.20;99.90;;;;;;5131354;27;20461;-75
2024/01/19 09:41:31;;;;;;;23.60;15.07;;;1.20;99.90;;;;;;5130991;27;20841;-75
2024/01/19 09:43:58;;;;;;;29.15;18.25;;;1.20;99.90;;;;;;5112354;27;20260;-74
2024/01/19 09:46:29;;;;;;;35.63;19.77;;;1.30;99.90;;;;;;5131282;27;20210;-74
2024/01/19 09:49:16;;;;;;;23.85;13.52;;;1.30;99.90;;;;;;5131015;27;20212;-74
2024/01/19 09:52:01;;;;;;;25.40;11.82;;;1.20;99.90;;;;;;5131037;27;20170;-74
2024/01/19 09:54:35;;;;;;;21.80;13.07;;;1.70;99.90;;;;;;5112012;27;20189;-74
2024/01/19 09:57:02;;;;;;;17.55;10.93;;;1.80;99.90;;;;;;5113401;27;20242;-74
2024/01/19 09:59:30;;;;;;;21.90;12.40;;;1.80;99.90;;;;;;5111944;27;20220;-74
2024/01/19 10:01:56;;;;;;;14.20;9.85;;;1.80;99.90;;;;;;5130812;27;20558;-73
2024/01/19 10:04:23;;;;;;;22.67;11.17;;;1.70;99.90;;;;;;5112159;27;20192;-72
2024/01/19 10:06:53;;;;;;;22.85;11.13;;;1.50;99.90;;;;;;5112052;27;20431;-73
2024/01/19 10:09:20;;;;;;;20.10;11.70;;;1.40;99.90;;;;;;5112004;27;20224;-74
2024/01/19 10:11:49;;;;;;;18.48;11.05;;;1.20;99.90;;;;;;5130523;27;20201;-75
2024/01/19 10:14:15;;;;;;;16.70;11.60;;;1.10;99.90;;;;;;5111756;27;20181;-75
2024/01/19 10:16:42;;;;;;;15.10;9.97;;;1.00;99.90;;;;;;5111944;27;20610;-75
2024/01/19 10:19:09;;;;;;;16.35;10.45;;;0.90;99.90;;;;;;5111934;27;20479;-75
2024/01/19 10:21:35;;;;;;;15.68;10.27;;;1.40;99.90;;;;;;5112110;27;20185;-75
2024/01/19 10:24:14;;;;;;;15.80;9.40;;;2.20;99.90;;;;;;5130145;27;20191;-74
2024/01/19 10:26:42;;;;;;;19.90;12.23;;;2.20;99.90;;;;;;5130380;27;20201;-74
2024/01/19 10:29:14;;;;;;;29.05;12.88;;;2.40;99.90;;;;;;5130277;27;20261;-74
2024/01/19 10:31:42;;;;;;;17.70;11.15;;;2.80;99.90;;;;;;5111232;27;20181;-74
2024/01/19 10:34:26;;;;;;;18.17;11.02;;;3.50;99.90;;;;;;5130067;27;20173;-74
2024/01/19 10:36:52;;;;;;;17.63;10.55;;;4.40;99.90;;;;;;5111630;27;20198;-74
2024/01/19 10:39:30;;;;;;;18.40;10.43;;;4.30;99.90;;;;;;5111369;27;20217;-73
2024/01/19 10:42:07;;;;;;;26.13;11.27;;;3.60;99.90;;;;;;5129316;27;20211;-74
2024/01/19 10:44:33;;;;;;;18.65;11.60;;;3.10;99.90;;;;;;5130341;27;20216;-74
2024/01/19 10:46:59;;;;;;;20.25;12.55;;;3.00;99.90;;;;;;5130335;27;20282;-74
2024/01/19 10:49:25;;;;;;;15.90;11.10;;;3.00;99.90;;;;;;5129690;27;20317;-74
2024/01/19 10:51:51;;;;;;;19.00;10.83;;;3.00;99.90;;;;;;5111865;27;20462;-74
2024/01/19 10:54:24;;;;;;;18.42;12.07;;;2.90;99.90;;;;;;5129890;27;20182;-73
2024/01/19 10:57:08;;;;;;;18.65;12.82;;;2.80;99.90;;;;;;5130268;27;20181;-75
2024/01/19 10:59:34;;;;;;;19.20;13.57;;;2.70;99.90;;;;;;5111936;27;20251;-74
2024/01/19 11:02:03;;;;;;;18.10;11.52;;;2.50;99.90;;;;;;5111278;27;20221;-74
2024/01/19 11:04:28;;;;;;;16.48;9.45;;;2.40;99.90;;;;;;5132007;27;20183;-73
2024/01/19 11:06:54;;;;;;;37.57;24.87;;;2.20;99.90;;;;;;5111580;27;20425;-73
2024/01/19 11:09:20;;;;;;;25.53;15.50;;;2.20;99.90;;;;;;5129847;27;20502;-74
2024/01/19 11:11:55;;;;;;;40.27;24.83;;;2.20;99.90;;;;;;5111585;27;20411;-74
2024/01/19 11:14:26;;;;;;;19.67;14.02;;;2.20;99.90;;;;;;5129854;27;20186;-74
2024/01/19 11:16:54;;;;;;;18.73;11.45;;;2.30;99.90;;;;;;5111238;27;20217;-74
2024/01/19 11:19:22;;;;;;;15.55;10.98;;;2.30;99.90;;;;;;5129884;27;20575;-74
2024/01/19 11:21:48;;;;;;;17.02;10.25;;;2.30;99.90;;;;;;5129901;27;20194;-73
2024/01/19 11:24:16;;;;;;;20.13;10.83;;;2.20;99.90;;;;;;5129862;27;20191;-74
2024/01/19 11:26:47;;;;;;;19.50;10.13;;;2.10;99.90;;;;;;5129887;27;20205;-74
2024/01/19 11:29:23;;;;;;;29.80;19.23;;;2.00;99.90;;;;;;5128971;27;20584;-74
2024/01/19 11:31:50;;;;;;;47.70;28.83;;;1.90;99.90;;;;;;5129214;27;20206;-75
2024/01/19 11:34:48;;;;;;;27.02;19.05;;;1.70;99.90;;;;;;5128851;27;20167;-72
2024/01/19 11:37:40;;;;;;;18.92;11.30;;;1.60;99.90;;;;;;5110275;27;20583;-74
2024/01/19 11:40:06;;;;;;;17.13;11.73;;;1.60;99.90;;;;;;5110054;27;20692;-73
2024/01/19 11:42:38;;;;;;;17.48;10.85;;;1.60;99.90;;;;;;5129004;27;20614;-74
2024/01/19 11:45:05;;;;;;;18.30;10.55;;;2.20;99.90;;;;;;5128629;27;20934;-74
2024/01/19 11:47:36;;;;;;;12.50;8.75;;;3.70;99.90;;;;;;5128633;27;20213;-74
2024/01/19 11:50:03;;;;;;;16.75;10.23;;;5.20;99.90;;;;;;5109983;27;20869;-73
2024/01/19 11:52:30;;;;;;;14.00;9.73;;;5.80;99.90;;;;;;5092485;28;20211;-74
2024/01/19 11:54:57;;;;;;;16.50;10.10;;;6.10;99.90;;;;;;5128271;27;20613;-73
2024/01/19 11:57:25;;;;;;;16.87;10.00;;;6.60;99.90;;;;;;5128742;27;20442;-73
2024/01/19 11:59:52;;;;;;;15.50;9.97;;;6.80;99.90;;;;;;5128548;27;20546;-73
2024/01/19 12:02:22;;;;;;;19.70;11.40;;;6.70;99.90;;;;;;5129577;27;20421;-73
2024/01/19 12:04:48;;;;;;;17.23;9.60;;;6.80;99.90;;;;;;5109677;27;20415;-73
2024/01/19 12:07:23;;;;;;;16.87;10.53;;;6.50;99.90;;;;;;5128348;27;20419;-73
2024/01/19 12:10:07;;;;;;;21.83;10.60;;;6.00;99.90;;;;;;5128328;27;20481;-73
2024/01/19 12:12:37;;;;;;;13.10;8.07;;;5.20;99.90;;;;;;5128547;27;20807;-72
2024/01/19 12:15:04;;;;;;;12.20;9.23;;;4.70;99.90;;;;;;5128207;27;20733;-72
2024/01/19 12:17:30;;;;;;;26.67;10.57;;;4.50;99.90;;;;;;5128138;27;20417;-72
2024/01/19 12:19:56;;;;;;;16.23;9.73;;;4.20;99.90;;;;;;5109523;27;20421;-73
2024/01/19 12:22:22;;;;;;;12.60;9.10;;;3.90;99.90;;;;;;5128313;27;20883;-73
2024/01/19 12:24:47;;;;;;;15.90;10.20;;;3.70;99.90;;;;;;5127837;27;20184;-73
2024/01/19 12:27:17;;;;;;;17.30;10.93;;;3.50;99.90;;;;;;5128139;27;20932;-73
2024/01/19 12:29:42;;;;;;;25.25;13.02;;;3.40;99.90;;;;;;5109109;27;20219;-73